Haverhill, Ohio
Current Conditions -  °F | °C
As of 11:55 AM on Monday 22 Dec 2014 (Local Time) from KDWU Reporting Station
Overcast Overcast  
Wind Chill: 41°   Ceiling: 5000
Heat Index: 41°   Visibility: 10mi
Dew Point: 32°   Wind: 3mph
Humidity: 70%   Direction: 300°WNW
Pressure: 29.98"   Gusts: NA
Location:  38.58°N, 82.83°W
Report Text: KDWU 221655Z AUTO 30003KT 10SM SCT040 OVC050 05/00 A2998 RMK AO1
Loading
Personal Weather Stations






























Interactive Weather Map New forecast layout! Learn more

10-Day Weather Forecast

Advertisements
Track Severe Weather on mobile